createdAt,value
2022-08-01T00:01:17.135Z,100404.28
2022-08-01T00:03:44.914Z,100402.41
2022-08-01T00:06:12.778Z,100408.25
2022-08-01T00:08:40.570Z,100404.88
2022-08-01T00:11:10.107Z,100388.41
2022-08-01T00:13:37.909Z,100407.19
2022-08-01T00:16:07.195Z,100392.47
2022-08-01T00:18:35.464Z,100407.34
2022-08-01T00:21:03.324Z,100410.31
2022-08-01T00:23:31.272Z,100393.31
2022-08-01T00:25:59.124Z,100404.91
2022-08-01T00:28:26.937Z,100402.38
2022-08-01T00:30:54.706Z,100404.41
2022-08-01T00:33:23.870Z,100404.97
2022-08-01T00:35:51.656Z,100399.81
2022-08-01T00:38:19.450Z,100395.22
2022-08-01T00:40:47.471Z,100399.38
2022-08-01T00:43:15.462Z,100396.53
2022-08-01T00:45:43.766Z,100392.59
2022-08-01T00:48:11.716Z,100399.19
2022-08-01T00:50:40.998Z,100396.88
2022-08-01T00:53:09.374Z,100398.25
2022-08-01T00:55:47.114Z,100402.81
2022-08-01T00:58:15.011Z,100392.41
2022-08-01T01:00:52.895Z,100415.31
2022-08-01T01:03:49.453Z,100404.81
2022-08-01T01:06:34.875Z,100403.06
2022-08-01T01:09:17.213Z,100417.75
2022-08-01T01:11:51.431Z,100417.56
2022-08-01T01:14:29.801Z,100412.25
2022-08-01T01:17:00.281Z,100403.56
2022-08-01T01:19:32.253Z,100417.44
2022-08-01T01:22:19.157Z,100425.88
2022-08-01T01:24:59.780Z,100425.47
2022-08-01T01:27:43.579Z,100418.84
2022-08-01T01:30:13.082Z,100416.72
2022-08-01T01:32:45.430Z,100418.34
2022-08-01T01:35:17.640Z,100422.28
2022-08-01T01:37:49.563Z,100418.22
2022-08-01T01:40:18.934Z,100434.78
2022-08-01T01:42:48.408Z,100432.66
2022-08-01T01:45:19.096Z,100429.41
2022-08-01T01:47:48.140Z,100416.28
2022-08-01T01:50:16.946Z,100430.66
2022-08-01T01:52:47.861Z,100416.78
2022-08-01T01:55:17.563Z,100437.19
2022-08-01T01:57:46.654Z,100434.47
2022-08-01T02:00:16.092Z,100434.19
2022-08-01T02:02:46.551Z,100438.97
2022-08-01T02:05:15.793Z,100445.03
2022-08-01T02:07:45.300Z,100436.44
2022-08-01T02:10:19.117Z,100448.56
2022-08-01T02:12:50.893Z,100437.81
2022-08-01T02:15:20.402Z,100436.88
2022-08-01T02:17:51.750Z,100431.63
2022-08-01T02:20:19.690Z,100453.00
2022-08-01T02:22:52.202Z,100450.47
2022-08-01T02:25:25.832Z,100449.06
2022-08-01T02:28:01.574Z,100440.84
2022-08-01T02:30:34.704Z,100434.28
2022-08-01T02:33:15.819Z,100452.69
2022-08-01T02:36:29.159Z,100440.72
2022-08-01T02:38:39.577Z,100433.25
2022-08-01T02:41:10.439Z,100442.03
2022-08-01T02:43:40.855Z,100437.34
2022-08-01T02:46:14.242Z,100442.34
2022-08-01T02:48:45.647Z,100446.22
2022-08-01T02:51:16.912Z,100446.75
2022-08-01T02:53:46.910Z,100445.16
2022-08-01T02:56:17.084Z,100444.88
2022-08-01T02:58:46.703Z,100439.69
2022-08-01T03:01:16.335Z,100433.13
2022-08-01T03:03:46.539Z,100439.97
2022-08-01T03:06:15.838Z,100437.03
2022-08-01T03:08:45.051Z,100450.28
2022-08-01T03:11:14.593Z,100440.69
2022-08-01T03:13:45.113Z,100445.88
2022-08-01T03:16:14.380Z,100447.81
2022-08-01T03:18:46.990Z,100436.53
2022-08-01T03:21:16.233Z,100425.47
2022-08-01T03:23:48.214Z,100436.69
2022-08-01T03:26:17.723Z,100456.75
2022-08-01T03:28:48.083Z,100439.97
2022-08-01T03:31:16.477Z,100456.13
2022-08-01T03:33:45.660Z,100448.84
2022-08-01T03:36:15.279Z,100446.63
2022-08-01T03:38:46.991Z,100448.81
2022-08-01T03:41:18.070Z,100448.81
2022-08-01T03:43:50.109Z,100454.63
2022-08-01T03:46:25.224Z,100452.97
2022-08-01T03:49:00.910Z,100437.56
2022-08-01T03:51:29.877Z,100451.59
2022-08-01T03:53:59.937Z,100454.06
2022-08-01T03:56:31.727Z,100458.22
2022-08-01T03:59:01.089Z,100456.28
2022-08-01T04:01:31.148Z,100459.88
2022-08-01T04:04:02.196Z,100460.50
2022-08-01T04:06:31.374Z,100452.47
2022-08-01T04:08:59.292Z,100436.00
2022-08-01T04:11:29.595Z,100459.09
2022-08-01T04:13:58.434Z,100453.03
2022-08-01T04:16:26.919Z,100464.91
2022-08-01T04:18:54.806Z,100458.88
2022-08-01T04:21:28.566Z,100451.22
2022-08-01T04:24:00.026Z,100462.19
2022-08-01T04:26:29.139Z,100453.97
2022-08-01T04:28:57.786Z,100465.84
2022-08-01T04:31:27.991Z,100467.81
2022-08-01T04:33:57.735Z,100475.75
2022-08-01T04:36:30.506Z,100466.53
2022-08-01T04:39:02.477Z,100473.88
2022-08-01T04:41:32.461Z,100468.06
2022-08-01T04:44:01.605Z,100472.00
2022-08-01T04:46:30.654Z,100470.00
2022-08-01T04:48:58.895Z,100474.31
2022-08-01T04:51:28.555Z,100469.06
2022-08-01T04:53:58.437Z,100463.53
2022-08-01T04:56:26.309Z,100470.44
2022-08-01T04:59:19.717Z,100465.25
2022-08-01T05:01:51.479Z,100478.19
2022-08-01T05:04:19.460Z,100480.94
2022-08-01T05:06:48.710Z,100481.56
2022-08-01T05:09:16.949Z,100478.66
2022-08-01T05:11:44.800Z,100488.41
2022-08-01T05:14:12.604Z,100481.78
2022-08-01T05:16:40.410Z,100489.88
2022-08-01T05:19:09.072Z,100491.81
2022-08-01T05:21:37.306Z,100495.81
2022-08-01T05:24:07.174Z,100492.50
2022-08-01T05:26:36.663Z,100504.63
2022-08-01T05:29:04.809Z,100510.75
2022-08-01T05:31:35.107Z,100500.94
2022-08-01T05:34:03.082Z,100511.97
2022-08-01T05:36:30.981Z,100510.91
2022-08-01T05:38:58.766Z,100504.59
2022-08-01T05:41:28.484Z,100508.28
2022-08-01T05:43:56.338Z,100515.03
2022-08-01T05:46:26.214Z,100502.88
2022-08-01T05:48:55.355Z,100510.94
2022-08-01T05:51:23.147Z,100510.31
2022-08-01T05:53:51.042Z,100506.69
2022-08-01T05:56:18.947Z,100508.66
2022-08-01T05:58:48.250Z,100493.22
2022-08-01T06:01:16.080Z,100502.44
2022-08-01T06:03:43.976Z,100507.59
2022-08-01T06:06:11.961Z,100512.81
2022-08-01T06:08:39.878Z,100516.31
2022-08-01T06:11:07.732Z,100511.19
2022-08-01T06:13:45.639Z,100509.84
2022-08-01T06:16:18.294Z,100518.06
2022-08-01T06:18:46.131Z,100520.38
2022-08-01T06:21:14.021Z,100523.50
2022-08-01T06:23:42.449Z,100539.13
2022-08-01T06:26:10.374Z,100536.16
2022-08-01T06:28:38.370Z,100539.41
2022-08-01T06:31:06.221Z,100534.59
2022-08-01T06:33:35.387Z,100539.50
2022-08-01T06:36:03.145Z,100531.00
2022-08-01T06:38:31.052Z,100541.38
2022-08-01T06:40:58.860Z,100535.34
2022-08-01T06:43:26.651Z,100529.41
2022-08-01T06:45:54.468Z,100539.09
2022-08-01T06:48:22.295Z,100529.03
2022-08-01T06:51:08.514Z,100530.47
2022-08-01T06:53:36.807Z,100545.75
2022-08-01T06:56:05.018Z,100540.34
2022-08-01T06:58:33.091Z,100545.06
2022-08-01T07:01:00.990Z,100546.97
2022-08-01T07:03:53.320Z,100548.03
2022-08-01T07:06:18.070Z,100544.41
2022-08-01T07:08:45.882Z,100537.50
2022-08-01T07:11:13.636Z,100543.59
2022-08-01T07:13:45.459Z,100535.94
2022-08-01T07:16:13.756Z,100529.25
2022-08-01T07:18:41.602Z,100532.09
2022-08-01T07:21:39.087Z,100534.41
2022-08-01T07:23:59.186Z,100534.16
2022-08-01T07:26:28.539Z,100532.09
2022-08-01T07:28:56.447Z,100524.78
2022-08-01T07:31:27.375Z,100522.03
2022-08-01T07:33:57.246Z,100526.16
2022-08-01T07:36:25.143Z,100518.78
2022-08-01T07:38:53.009Z,100515.84
2022-08-01T07:41:22.315Z,100529.72
2022-08-01T07:44:10.157Z,100514.75
2022-08-01T07:46:38.391Z,100516.94
2022-08-01T07:49:06.274Z,100510.09
2022-08-01T07:51:34.097Z,100519.78
2022-08-01T07:54:01.887Z,100524.41
2022-08-01T07:56:31.071Z,100514.97
2022-08-01T07:58:58.857Z,100522.69
2022-08-01T08:01:27.658Z,100512.50
2022-08-01T08:03:55.511Z,100508.59
2022-08-01T08:06:23.727Z,100513.91
2022-08-01T08:08:51.613Z,100505.50
2022-08-01T08:11:19.396Z,100518.88
2022-08-01T08:13:48.594Z,100516.28
2022-08-01T08:16:16.375Z,100512.00
2022-08-01T08:18:44.281Z,100495.09
2022-08-01T08:21:12.223Z,100516.56
2022-08-01T08:23:57.633Z,100506.84
2022-08-01T08:26:26.271Z,100514.97
2022-08-01T08:28:55.701Z,100519.22
2022-08-01T08:31:23.758Z,100522.59
2022-08-01T08:34:11.479Z,100519.28
2022-08-01T08:36:39.583Z,100521.03
2022-08-01T08:39:15.823Z,100518.25
2022-08-01T08:41:45.703Z,100524.91
2022-08-01T08:44:20.940Z,100525.22
2022-08-01T08:46:51.938Z,100534.72
2022-08-01T08:49:22.256Z,100532.56
2022-08-01T08:51:52.163Z,100526.75
2022-08-01T08:54:22.956Z,100531.81
2022-08-01T08:56:58.429Z,100533.09
2022-08-01T08:59:29.015Z,100523.00
2022-08-01T09:01:56.934Z,100537.09
2022-08-01T09:04:27.299Z,100540.47
2022-08-01T09:06:56.010Z,100525.13
2022-08-01T09:09:24.301Z,100532.38
2022-08-01T09:11:57.388Z,100529.63
2022-08-01T09:14:47.245Z,100530.81
2022-08-01T09:17:15.271Z,100522.25
2022-08-01T09:19:44.289Z,100538.06
2022-08-01T09:22:14.945Z,100532.84
2022-08-01T09:24:43.429Z,100517.25
2022-08-01T09:27:21.745Z,100529.56
2022-08-01T09:30:01.345Z,100531.34
2022-08-01T09:32:36.115Z,100518.41
2022-08-01T09:35:31.265Z,100528.41
2022-08-01T09:38:22.830Z,100534.41
2022-08-01T09:40:53.919Z,100529.28
2022-08-01T09:43:23.290Z,100523.66
2022-08-01T09:45:53.739Z,100520.19
2022-08-01T09:48:27.814Z,100521.84
2022-08-01T09:51:04.555Z,100523.16
2022-08-01T09:53:52.257Z,100522.81
2022-08-01T09:56:21.700Z,100530.22
2022-08-01T09:58:59.280Z,100521.69
2022-08-01T10:01:36.872Z,100522.34
2022-08-01T10:04:09.582Z,100523.97
2022-08-01T10:06:38.985Z,100523.44
2022-08-01T10:09:07.186Z,100509.84
2022-08-01T10:11:37.683Z,100512.97
2022-08-01T10:14:08.175Z,100516.06
2022-08-01T10:16:38.752Z,100511.25
2022-08-01T10:19:14.857Z,100511.47
2022-08-01T10:21:57.020Z,100511.69
2022-08-01T10:24:29.228Z,100506.91
2022-08-01T10:27:05.811Z,100495.91
2022-08-01T10:29:46.176Z,100500.84
2022-08-01T10:32:18.007Z,100502.13
2022-08-01T10:34:46.611Z,100495.69
2022-08-01T10:37:15.074Z,100499.63
2022-08-01T10:39:44.741Z,100495.66
2022-08-01T10:42:15.829Z,100496.91
2022-08-01T10:44:47.239Z,100486.47
2022-08-01T10:47:27.069Z,100482.84
2022-08-01T10:50:26.865Z,100483.50
2022-08-01T10:53:16.636Z,100478.44
2022-08-01T10:55:53.625Z,100467.63
2022-08-01T10:58:27.727Z,100478.09
2022-08-01T11:01:22.492Z,100473.34
2022-08-01T11:04:16.417Z,100473.78
2022-08-01T11:06:54.509Z,100472.19
2022-08-01T11:09:36.843Z,100459.22
2022-08-01T11:12:12.776Z,100466.66
2022-08-01T11:15:29.997Z,100472.97
2022-08-01T11:18:01.128Z,100463.28
2022-08-01T11:20:33.801Z,100467.06
2022-08-01T11:23:36.512Z,100464.72
2022-08-01T11:26:14.572Z,100463.03
2022-08-01T11:29:10.939Z,100469.41
2022-08-01T11:31:37.761Z,100461.91
2022-08-01T11:34:06.855Z,100462.13
2022-08-01T11:36:58.235Z,100462.28
2022-08-01T11:39:23.929Z,100451.28
2022-08-01T11:41:53.603Z,100451.94
2022-08-01T11:44:28.273Z,100450.38
2022-08-01T11:47:09.506Z,100441.72
2022-08-01T11:49:51.686Z,100437.28
2022-08-01T11:52:27.229Z,100441.41
2022-08-01T11:54:56.934Z,100416.53
2022-08-01T11:57:34.586Z,100426.47
2022-08-01T12:00:08.418Z,100425.72
2022-08-01T12:02:37.450Z,100423.22
2022-08-01T12:05:11.999Z,100434.63
2022-08-01T12:07:42.956Z,100428.09
2022-08-01T12:10:13.722Z,100415.91
2022-08-01T12:12:46.277Z,100403.88
2022-08-01T12:15:15.285Z,100400.56
2022-08-01T12:17:47.025Z,100409.19
2022-08-01T12:20:32.063Z,100403.44
2022-08-01T12:23:03.175Z,100412.47
2022-08-01T12:25:31.324Z,100408.56
2022-08-01T12:28:02.691Z,100405.19
2022-08-01T12:30:32.689Z,100398.56
2022-08-01T12:33:00.641Z,100407.66
2022-08-01T12:35:30.042Z,100397.88
2022-08-01T12:37:59.919Z,100396.59
2022-08-01T12:43:50.135Z,100393.88
2022-08-01T12:46:18.454Z,100399.56
2022-08-01T12:48:46.749Z,100404.25
2022-08-01T12:51:14.879Z,100402.25
2022-08-01T12:53:42.936Z,100395.16
2022-08-01T12:56:12.948Z,100386.03
2022-08-01T12:58:40.955Z,100391.53
2022-08-01T13:01:11.344Z,100383.22
2022-08-01T13:03:40.230Z,100386.63
2022-08-01T13:06:15.488Z,100388.72
2022-08-01T13:08:43.898Z,100391.50
2022-08-01T13:11:16.631Z,100384.09
2022-08-01T13:13:48.026Z,100393.78
2022-08-01T13:16:31.106Z,100383.84
2022-08-01T13:19:04.511Z,100386.63
2022-08-01T13:21:52.123Z,100378.28
2022-08-01T13:24:26.617Z,100391.06
2022-08-01T13:27:01.032Z,100385.66
2022-08-01T13:29:34.711Z,100395.09
2022-08-01T13:32:13.732Z,100398.88
2022-08-01T13:35:05.371Z,100397.50
2022-08-01T13:37:33.187Z,100397.22
2022-08-01T13:40:01.000Z,100394.44
2022-08-01T13:42:31.113Z,100402.72
2022-08-01T13:44:58.880Z,100401.25
2022-08-01T13:47:32.128Z,100394.78
2022-08-01T13:50:01.834Z,100397.81
2022-08-01T13:52:30.366Z,100396.41
2022-08-01T13:54:58.241Z,100394.50
2022-08-01T13:57:26.033Z,100396.34
2022-08-01T14:00:08.634Z,100388.41
2022-08-01T14:02:36.630Z,100401.25
2022-08-01T14:05:04.610Z,100397.56
2022-08-01T14:07:32.470Z,100400.72
2022-08-01T14:10:17.743Z,100394.00
2022-08-01T14:12:47.994Z,100390.69
2022-08-01T14:15:36.651Z,100386.78
2022-08-01T14:18:05.785Z,100387.81
2022-08-01T14:20:35.245Z,100382.34
2022-08-01T14:23:03.050Z,100389.06
2022-08-01T14:26:02.552Z,100392.50
2022-08-01T14:28:18.894Z,100398.22
2022-08-01T14:30:48.181Z,100397.34
2022-08-01T14:33:16.022Z,100401.41
2022-08-01T14:36:03.514Z,100408.56
2022-08-01T14:40:29.652Z,100403.50
2022-08-01T14:42:57.622Z,100400.44
2022-08-01T14:45:25.606Z,100385.00
2022-08-01T14:47:53.432Z,100407.50
2022-08-01T14:50:21.387Z,100400.03
2022-08-01T14:52:49.196Z,100390.34
2022-08-01T15:02:44.863Z,100386.84
2022-08-01T15:05:13.380Z,100395.44
2022-08-01T15:07:51.615Z,100394.31
2022-08-01T15:10:22.485Z,100385.34
2022-08-01T15:12:50.917Z,100392.47
2022-08-01T15:15:20.247Z,100378.94
2022-08-01T15:17:49.619Z,100386.47
2022-08-01T15:20:17.672Z,100386.81
2022-08-01T15:22:45.883Z,100376.06
2022-08-01T15:25:13.727Z,100383.00
2022-08-01T15:27:41.647Z,100371.03
2022-08-01T15:30:10.226Z,100388.91
2022-08-01T15:32:38.115Z,100392.78
2022-08-01T15:35:10.969Z,100394.56
2022-08-01T15:37:42.807Z,100363.84
2022-08-01T15:40:19.571Z,100386.47
2022-08-01T15:42:47.663Z,100393.59
2022-08-01T15:45:44.486Z,100394.69
2022-08-01T15:48:07.669Z,100399.09
2022-08-01T15:50:38.641Z,100398.56
2022-08-01T15:53:06.869Z,100399.59
2022-08-01T15:55:36.933Z,100398.56
2022-08-01T15:58:06.537Z,100408.56
2022-08-01T16:00:38.776Z,100415.91
2022-08-01T16:03:07.665Z,100409.28
2022-08-01T16:05:42.759Z,100413.19
2022-08-01T16:08:11.991Z,100414.81
2022-08-01T16:10:39.883Z,100416.47
2022-08-01T16:13:08.104Z,100407.00
2022-08-01T16:15:37.528Z,100397.59
2022-08-01T16:18:06.766Z,100405.84
2022-08-01T16:20:40.207Z,100406.41
2022-08-01T16:23:12.423Z,100409.69
2022-08-01T16:25:40.588Z,100409.03
2022-08-01T16:28:09.820Z,100408.31
2022-08-01T16:30:37.781Z,100398.50
2022-08-01T16:33:38.931Z,100383.91
2022-08-01T16:36:05.571Z,100405.25
2022-08-01T16:38:33.411Z,100397.72
2022-08-01T16:41:01.308Z,100394.66
2022-08-01T16:43:29.486Z,100400.56
2022-08-01T16:45:57.375Z,100400.41
2022-08-01T16:48:26.392Z,100394.28
2022-08-01T16:50:54.269Z,100386.53
2022-08-01T16:53:24.451Z,100388.94
2022-08-01T16:55:52.581Z,100399.25
2022-08-01T16:58:28.025Z,100397.00
2022-08-01T17:00:57.704Z,100401.22
2022-08-01T17:03:51.388Z,100387.47
2022-08-01T17:06:22.260Z,100397.22
2022-08-01T17:08:51.882Z,100403.94
2022-08-01T17:11:19.762Z,100385.75
2022-08-01T17:13:47.739Z,100403.19
2022-08-01T17:16:15.938Z,100406.16
2022-08-01T17:18:43.890Z,100411.22
2022-08-01T17:21:12.070Z,100400.72
2022-08-01T17:23:39.991Z,100414.53
2022-08-01T17:26:09.393Z,100412.50
2022-08-01T17:28:37.639Z,100413.34
2022-08-01T17:31:09.384Z,100419.44
2022-08-01T17:33:45.421Z,100408.00
2022-08-01T17:36:15.115Z,100422.25
2022-08-01T17:38:43.162Z,100401.28
2022-08-01T17:41:12.742Z,100420.44
2022-08-01T17:43:40.786Z,100418.66
2022-08-01T17:46:09.249Z,100414.06
2022-08-01T17:48:37.217Z,100415.53
2022-08-01T17:51:10.442Z,100420.47
2022-08-01T17:53:55.657Z,100422.44
2022-08-01T17:56:27.868Z,100424.03
2022-08-01T17:58:56.160Z,100419.13
2022-08-01T18:01:27.557Z,100425.50
2022-08-01T18:03:57.659Z,100422.22
2022-08-01T18:06:35.806Z,100418.78
2022-08-01T18:09:04.786Z,100428.75
2022-08-01T18:11:39.104Z,100405.63
2022-08-01T18:14:07.399Z,100433.31
2022-08-01T18:16:40.913Z,100432.41
2022-08-01T18:19:08.951Z,100429.28
2022-08-01T18:21:41.079Z,100407.91
2022-08-01T18:24:11.049Z,100441.03
2022-08-01T18:26:40.450Z,100444.28
2022-08-01T18:29:09.996Z,100427.94
2022-08-01T18:31:40.677Z,100445.44
2022-08-01T18:34:11.765Z,100446.94
2022-08-01T18:36:40.501Z,100418.53
2022-08-01T18:39:10.761Z,100438.41
2022-08-01T18:41:40.670Z,100450.16
2022-08-01T18:44:09.795Z,100451.47
2022-08-01T18:46:39.169Z,100462.06
2022-08-01T18:49:08.809Z,100460.50
2022-08-01T18:51:43.213Z,100458.34
2022-08-01T18:54:12.352Z,100457.91
2022-08-01T18:56:42.296Z,100440.16
2022-08-01T18:59:10.801Z,100438.00
2022-08-01T19:01:39.806Z,100451.16
2022-08-01T19:04:08.174Z,100481.59
2022-08-01T19:06:36.288Z,100464.13
2022-08-01T19:09:04.941Z,100462.91
2022-08-01T19:11:33.987Z,100435.06
2022-08-01T19:14:03.990Z,100473.94
2022-08-01T19:16:32.507Z,100491.66
2022-08-01T19:19:01.872Z,100491.78
2022-08-01T19:21:32.954Z,100498.88
2022-08-01T19:24:23.586Z,100503.16
2022-08-01T19:26:53.929Z,100497.28
2022-08-01T19:29:32.979Z,100511.13
2022-08-01T19:32:06.658Z,100496.00
2022-08-01T19:34:37.499Z,100521.50
2022-08-01T19:37:06.123Z,100517.56
2022-08-01T19:39:34.402Z,100516.03
2022-08-01T19:42:04.040Z,100524.22
2022-08-01T19:44:33.710Z,100517.66
2022-08-01T19:47:02.825Z,100534.63
2022-08-01T19:49:30.737Z,100539.13
2022-08-01T19:52:02.474Z,100532.13
2022-08-01T19:54:35.136Z,100530.81
2022-08-01T19:57:04.323Z,100553.13
2022-08-01T19:59:35.210Z,100551.63
2022-08-01T20:02:03.726Z,100553.34
2022-08-01T20:04:31.699Z,100547.31
2022-08-01T20:06:59.734Z,100553.75
2022-08-01T20:09:28.670Z,100554.47
2022-08-01T20:11:56.795Z,100553.91
2022-08-01T20:14:26.675Z,100553.47
2022-08-01T20:16:57.349Z,100565.97
2022-08-01T20:19:26.781Z,100574.00
2022-08-01T20:22:02.778Z,100573.00
2022-08-01T20:24:39.760Z,100557.38
2022-08-01T20:27:11.111Z,100574.94
2022-08-01T20:29:40.593Z,100573.47
2022-08-01T20:32:10.107Z,100591.88
2022-08-01T20:34:40.100Z,100582.88
2022-08-01T20:37:12.693Z,100571.13
2022-08-01T20:39:45.087Z,100580.75
2022-08-01T20:42:14.083Z,100591.09
2022-08-01T20:44:42.797Z,100599.03
2022-08-01T20:47:15.936Z,100566.94
2022-08-01T20:49:44.692Z,100592.66
2022-08-01T20:52:13.007Z,100601.81
2022-08-01T20:54:42.143Z,100611.69
2022-08-01T20:57:16.892Z,100612.59
2022-08-01T20:59:55.773Z,100606.41
2022-08-01T21:02:38.830Z,100612.22
2022-08-01T21:05:10.668Z,100622.22
2022-08-01T21:07:43.632Z,100612.75
2022-08-01T21:10:13.060Z,100626.78
2022-08-01T21:12:46.123Z,100608.59
2022-08-01T21:15:25.316Z,100623.25
2022-08-01T21:18:02.368Z,100626.38
2022-08-01T21:20:33.363Z,100614.75
2022-08-01T21:23:22.782Z,100623.31
2022-08-01T21:25:50.841Z,100614.03
2022-08-01T21:28:19.838Z,100622.13
2022-08-01T21:30:55.798Z,100616.66
2022-08-01T21:33:28.367Z,100617.50
2022-08-01T21:36:01.355Z,100618.28
2022-08-01T21:38:34.542Z,100625.53
2022-08-01T21:41:04.721Z,100620.09
2022-08-01T21:43:34.299Z,100630.94
2022-08-01T21:46:03.018Z,100640.59
2022-08-01T21:48:33.523Z,100636.50
2022-08-01T21:51:06.740Z,100642.28
2022-08-01T21:54:00.325Z,100645.03
2022-08-01T21:56:37.574Z,100658.34
2022-08-01T21:59:16.050Z,100656.72
2022-08-01T22:01:53.097Z,100658.97
2022-08-01T22:04:33.371Z,100658.44
2022-08-01T22:07:03.791Z,100663.97
2022-08-01T22:09:33.024Z,100652.13
2022-08-01T22:12:06.918Z,100658.22
2022-08-01T22:14:40.280Z,100662.09
2022-08-01T22:17:09.346Z,100673.44
2022-08-01T22:19:45.582Z,100668.72
2022-08-01T22:22:51.429Z,100677.84
2022-08-01T22:25:03.761Z,100681.72
2022-08-01T22:28:03.222Z,100677.59
2022-08-01T22:30:20.865Z,100668.44
2022-08-01T22:33:07.191Z,100672.59
2022-08-01T22:35:39.961Z,100669.56
2022-08-01T22:38:09.838Z,100658.00
2022-08-01T22:40:45.062Z,100659.38
2022-08-01T22:43:23.965Z,100668.47
2022-08-01T22:46:01.383Z,100661.88
2022-08-01T22:48:38.720Z,100668.75
2022-08-01T22:51:25.127Z,100663.25
2022-08-01T22:53:59.671Z,100671.50
2022-08-01T22:56:30.544Z,100673.72
2022-08-01T22:59:02.840Z,100684.47
2022-08-01T23:01:33.247Z,100672.91
2022-08-01T23:04:01.934Z,100672.88
2022-08-01T23:06:42.548Z,100657.16
2022-08-01T23:09:10.922Z,100667.38
2022-08-01T23:11:39.775Z,100670.41
2022-08-01T23:14:08.565Z,100677.03
2022-08-01T23:16:38.292Z,100674.56
2022-08-01T23:19:11.311Z,100677.03
2022-08-01T23:21:42.210Z,100680.91
2022-08-01T23:24:11.171Z,100686.13
2022-08-01T23:26:39.410Z,100678.41
2022-08-01T23:29:08.764Z,100684.19
2022-08-01T23:31:51.771Z,100681.41
2022-08-01T23:34:28.182Z,100675.31
2022-08-01T23:36:57.519Z,100683.28
2022-08-01T23:39:25.430Z,100684.94
2022-08-01T23:41:58.038Z,100689.31
2022-08-01T23:44:26.725Z,100686.81
2022-08-01T23:46:54.705Z,100695.38
2022-08-01T23:49:22.752Z,100679.69
2022-08-01T23:51:50.982Z,100697.88
2022-08-01T23:54:20.598Z,100694.56
2022-08-01T23:56:49.073Z,100695.13
2022-08-01T23:59:17.192Z,100692.91
